Time;durP1;ratioP1;P1;durP2;ratioP2;P2;SDS_P1;SDS_P2;PMS_P1;PMS_P2;Temp;Humidity;BMP_temperature;BMP_pressure;BME280_temperature;BME280_humidity;BME280_pressure;Samples;Min_cycle;Max_cycle;Signal;HPM_P1;HPM_P2
2023/03/23 00:01:21;;;;;;;26.80;15.90;;;14.00;72.60;;;;;;5073700;28;20032;-66
2023/03/23 00:03:50;;;;;;;20.85;16.55;;;14.00;72.50;;;;;;5074126;28;20106;-66
2023/03/23 00:06:19;;;;;;;21.02;16.30;;;14.00;72.70;;;;;;5073731;28;20028;-66
2023/03/23 00:08:52;;;;;;;22.20;15.32;;;14.00;73.10;;;;;;5073719;28;20029;-67
2023/03/23 00:11:21;;;;;;;21.27;15.95;;;14.00;73.10;;;;;;5073534;28;20476;-66
2023/03/23 00:13:52;;;;;;;19.58;15.27;;;14.00;73.20;;;;;;5073616;28;20434;-66
2023/03/23 00:16:28;;;;;;;24.77;16.77;;;14.00;72.90;;;;;;5073499;28;20093;-66
2023/03/23 00:18:55;;;;;;;19.27;15.45;;;13.90;72.70;;;;;;5073342;28;20032;-67
2023/03/23 00:21:33;;;;;;;22.63;15.30;;;13.90;73.30;;;;;;5073549;28;20040;-66
2023/03/23 00:24:07;;;;;;;19.38;15.55;;;13.90;73.40;;;;;;5073402;28;20120;-66
2023/03/23 00:26:34;;;;;;;21.08;16.23;;;13.90;73.40;;;;;;5073048;28;20115;-66
2023/03/23 00:29:04;;;;;;;22.23;17.35;;;13.80;73.50;;;;;;5073160;28;20036;-66
2023/03/23 00:31:32;;;;;;;21.50;15.88;;;13.80;73.10;;;;;;5073460;28;20036;-67
2023/03/23 00:34:03;;;;;;;22.17;15.88;;;13.80;73.00;;;;;;5073306;28;20044;-66
2023/03/23 00:36:31;;;;;;;22.23;16.08;;;13.80;73.30;;;;;;5072923;28;20068;-66
2023/03/23 00:39:01;;;;;;;20.80;15.93;;;13.80;73.20;;;;;;5073162;28;20036;-66
2023/03/23 00:41:28;;;;;;;19.58;16.20;;;13.70;73.30;;;;;;5072721;28;20047;-67
2023/03/23 00:43:56;;;;;;;24.23;15.85;;;13.70;73.60;;;;;;5073248;28;20056;-66
2023/03/23 00:46:22;;;;;;;21.73;16.45;;;13.60;73.50;;;;;;5072622;28;20037;-66
2023/03/23 00:48:50;;;;;;;22.08;16.23;;;13.60;73.70;;;;;;5072743;28;20476;-66
2023/03/23 00:51:17;;;;;;;20.58;17.05;;;13.60;74.50;;;;;;5072628;28;20025;-66
2023/03/23 00:53:43;;;;;;;26.25;15.95;;;13.70;75.20;;;;;;5072534;28;20040;-67
2023/03/23 00:56:09;;;;;;;21.38;15.80;;;13.70;76.90;;;;;;5072825;28;20032;-67
2023/03/23 00:58:35;;;;;;;20.20;16.13;;;13.60;73.70;;;;;;5072642;28;20036;-66
2023/03/23 01:01:01;;;;;;;19.23;15.63;;;13.60;73.60;;;;;;5072911;28;20036;-67
2023/03/23 01:03:28;;;;;;;23.15;16.48;;;13.60;73.50;;;;;;5072686;28;20043;-66
2023/03/23 01:05:54;;;;;;;22.40;16.55;;;13.50;73.40;;;;;;5072726;28;20060;-66
2023/03/23 01:08:21;;;;;;;26.88;17.20;;;13.50;73.40;;;;;;5072455;28;20434;-66
2023/03/23 01:10:47;;;;;;;20.67;16.23;;;13.50;73.30;;;;;;5072561;28;20506;-66
2023/03/23 01:13:14;;;;;;;21.27;15.95;;;13.40;73.00;;;;;;5051325;28;20043;-67
2023/03/23 01:15:41;;;;;;;22.77;15.80;;;13.50;73.20;;;;;;5069453;28;20128;-66
2023/03/23 01:18:08;;;;;;;24.27;15.68;;;13.40;73.30;;;;;;5072133;28;20028;-66
2023/03/23 01:20:35;;;;;;;23.58;16.55;;;13.40;73.30;;;;;;5072275;28;20119;-67
2023/03/23 01:23:01;;;;;;;22.90;16.33;;;13.40;73.40;;;;;;5072596;28;20066;-67
2023/03/23 01:25:35;;;;;;;26.92;18.38;;;13.30;73.30;;;;;;5072480;28;20033;-66
2023/03/23 01:28:00;;;;;;;22.92;18.35;;;13.30;73.60;;;;;;5072530;28;20064;-66
2023/03/23 01:30:27;;;;;;;23.40;18.30;;;13.30;73.50;;;;;;5072287;28;20075;-66
2023/03/23 01:32:55;;;;;;;28.45;19.50;;;13.20;73.50;;;;;;5072541;28;20040;-66
2023/03/23 01:35:21;;;;;;;25.02;18.50;;;13.20;73.60;;;;;;5072518;28;20055;-66
2023/03/23 01:37:47;;;;;;;23.35;17.35;;;13.20;73.60;;;;;;5072264;28;20124;-66
2023/03/23 01:40:14;;;;;;;26.15;17.20;;;13.20;73.70;;;;;;5072603;28;20078;-66
2023/03/23 01:42:40;;;;;;;23.58;16.30;;;13.10;73.80;;;;;;5072494;28;20357;-66
2023/03/23 01:45:28;;;;;;;24.25;16.42;;;13.20;73.80;;;;;;5072253;28;20194;-66
2023/03/23 01:48:13;;;;;;;19.92;15.45;;;13.10;74.00;;;;;;5072297;28;20123;-67
2023/03/23 01:50:52;;;;;;;19.13;13.90;;;13.10;74.10;;;;;;5072130;28;20036;-66
2023/03/23 01:53:20;;;;;;;17.55;14.15;;;13.00;74.20;;;;;;5052125;28;20041;-66
2023/03/23 01:55:50;;;;;;;20.60;13.65;;;13.00;74.60;;;;;;5073883;28;20040;-66
2023/03/23 01:58:19;;;;;;;20.75;13.93;;;13.00;74.70;;;;;;5074384;28;20511;-67
2023/03/23 02:00:45;;;;;;;20.98;14.23;;;13.00;74.70;;;;;;5073017;28;20033;-66
2023/03/23 02:03:13;;;;;;;20.23;13.32;;;13.00;74.90;;;;;;5073168;28;20067;-67
2023/03/23 02:05:42;;;;;;;21.65;15.50;;;13.00;79.50;;;;;;5075182;28;20031;-67
2023/03/23 02:08:10;;;;;;;21.33;14.07;;;13.00;78.50;;;;;;5075736;28;20028;-66
2023/03/23 02:10:37;;;;;;;19.50;14.90;;;13.10;78.30;;;;;;5075955;28;20093;-65
2023/03/23 02:13:06;;;;;;;20.10;16.33;;;13.00;80.00;;;;;;5075562;28;20029;-66
2023/03/23 02:15:56;;;;;;;33.72;18.48;;;13.00;79.80;;;;;;5075988;28;20025;-66
2023/03/23 02:18:38;;;;;;;23.98;17.08;;;13.00;76.70;;;;;;5075826;28;20037;-66
2023/03/23 02:21:48;;;;;;;21.50;16.30;;;12.80;74.70;;;;;;5075654;28;20119;-66
2023/03/23 02:24:37;;;;;;;21.45;15.90;;;12.80;75.00;;;;;;5034619;28;20055;-66
2023/03/23 02:27:56;;;;;;;22.67;16.00;;;12.80;75.20;;;;;;5075558;28;20036;-67
2023/03/23 02:30:22;;;;;;;21.42;16.25;;;12.70;75.50;;;;;;4994133;28;20054;-66
2023/03/23 02:33:10;;;;;;;19.98;14.90;;;12.70;75.60;;;;;;4994218;28;20113;-66
2023/03/23 02:35:42;;;;;;;20.08;15.00;;;12.70;76.00;;;;;;5043951;28;20052;-65
2023/03/23 02:38:16;;;;;;;21.67;15.87;;;12.70;76.30;;;;;;5075607;28;20044;-66
2023/03/23 02:40:50;;;;;;;24.50;16.42;;;12.70;76.20;;;;;;5075674;28;20032;-66
2023/03/23 02:43:22;;;;;;;20.05;15.93;;;12.60;76.30;;;;;;5075063;28;20037;-66
2023/03/23 02:45:50;;;;;;;20.55;15.98;;;12.60;76.40;;;;;;5075250;28;20060;-66
2023/03/23 02:48:19;;;;;;;20.73;15.32;;;12.50;76.20;;;;;;5074785;28;20403;-66
2023/03/23 02:50:50;;;;;;;25.35;16.48;;;12.50;76.40;;;;;;5074992;28;20397;-66
2023/03/23 02:53:21;;;;;;;20.15;15.95;;;12.50;76.20;;;;;;5074979;28;20027;-65
2023/03/23 02:55:48;;;;;;;18.58;14.75;;;12.50;76.20;;;;;;5075185;28;20036;-66
2023/03/23 02:58:14;;;;;;;20.25;15.05;;;12.50;76.40;;;;;;5075079;28;20074;-66
2023/03/23 03:00:41;;;;;;;20.13;15.35;;;12.40;76.30;;;;;;5075319;28;20029;-66
2023/03/23 03:03:15;;;;;;;24.90;16.25;;;12.40;76.30;;;;;;5075137;28;20082;-67
2023/03/23 03:05:44;;;;;;;21.27;14.68;;;12.40;76.70;;;;;;5074610;28;20125;-66
2023/03/23 03:08:28;;;;;;;19.00;15.13;;;12.40;76.70;;;;;;5075183;28;20480;-67
2023/03/23 03:11:08;;;;;;;20.13;14.90;;;12.40;76.50;;;;;;5074859;28;20036;-67
2023/03/23 03:13:41;;;;;;;20.35;15.35;;;12.40;76.40;;;;;;5074733;28;20035;-66
2023/03/23 03:16:22;;;;;;;21.42;15.45;;;12.40;76.40;;;;;;5075029;28;20036;-66
2023/03/23 03:19:04;;;;;;;20.13;15.55;;;12.40;76.40;;;;;;5074601;28;20526;-66
2023/03/23 03:21:35;;;;;;;20.65;15.60;;;12.40;76.40;;;;;;5074991;28;20037;-66
2023/03/23 03:24:04;;;;;;;17.77;14.27;;;12.30;76.40;;;;;;5074830;28;20029;-66
2023/03/23 03:26:34;;;;;;;18.95;14.80;;;12.30;76.60;;;;;;5074765;28;20035;-66
2023/03/23 03:29:01;;;;;;;19.15;14.45;;;12.30;76.60;;;;;;5074558;28;20039;-66
2023/03/23 03:31:38;;;;;;;19.63;14.00;;;12.30;76.60;;;;;;5074460;28;20024;-66
2023/03/23 03:34:05;;;;;;;21.20;13.90;;;12.30;76.70;;;;;;5074533;28;20028;-66
2023/03/23 03:36:34;;;;;;;17.33;13.15;;;12.30;76.80;;;;;;5074424;28;20068;-66
2023/03/23 03:39:07;;;;;;;18.35;13.70;;;12.30;76.90;;;;;;5074231;28;20036;-66
2023/03/23 03:41:35;;;;;;;20.23;14.05;;;12.30;77.20;;;;;;5074316;28;20035;-66
2023/03/23 03:44:01;;;;;;;15.80;13.30;;;12.20;77.40;;;;;;5074184;28;20362;-66
2023/03/23 03:46:29;;;;;;;17.75;12.90;;;12.20;77.60;;;;;;5074123;28;20079;-66
2023/03/23 03:49:02;;;;;;;20.08;13.35;;;12.20;77.50;;;;;;5074269;28;20091;-67
2023/03/23 03:51:30;;;;;;;21.33;13.25;;;12.20;77.30;;;;;;5074121;28;20029;-66
2023/03/23 03:53:56;;;;;;;22.85;14.95;;;12.20;77.10;;;;;;5073914;28;20461;-66
2023/03/23 03:56:23;;;;;;;21.48;14.75;;;12.20;76.90;;;;;;5073940;28;20075;-66
2023/03/23 03:58:49;;;;;;;21.50;13.98;;;12.20;76.70;;;;;;5073989;28;20067;-66
2023/03/23 04:01:17;;;;;;;22.40;14.48;;;12.10;76.40;;;;;;5073920;28;20041;-66
2023/03/23 04:03:43;;;;;;;19.15;14.35;;;12.10;76.20;;;;;;5074007;28;20029;-66
2023/03/23 04:06:09;;;;;;;18.70;13.57;;;12.10;76.20;;;;;;5074168;28;20094;-66
2023/03/23 04:08:41;;;;;;;21.65;14.23;;;12.10;76.20;;;;;;5073790;28;20036;-66
2023/03/23 04:11:12;;;;;;;22.25;14.10;;;12.00;76.20;;;;;;5073740;28;20449;-66
2023/03/23 04:13:38;;;;;;;19.02;12.95;;;12.00;76.30;;;;;;5073751;28;20033;-66
2023/03/23 04:16:04;;;;;;;19.55;13.13;;;11.90;76.30;;;;;;5072910;28;20036;-66
2023/03/23 04:18:32;;;;;;;18.83;12.88;;;11.90;76.50;;;;;;5073701;28;20060;-66
2023/03/23 04:20:59;;;;;;;18.80;13.68;;;11.90;76.50;;;;;;5073379;28;20033;-66
2023/03/23 04:23:26;;;;;;;20.13;13.77;;;11.80;76.40;;;;;;5073349;28;20041;-67
2023/03/23 04:25:56;;;;;;;21.95;13.38;;;11.80;76.50;;;;;;5073437;28;20036;-66
2023/03/23 04:28:24;;;;;;;22.23;13.52;;;11.80;76.50;;;;;;5073354;28;20033;-66
2023/03/23 04:30:53;;;;;;;19.58;13.85;;;11.70;76.60;;;;;;5073053;28;20471;-66
2023/03/23 04:33:24;;;;;;;20.77;14.57;;;11.70;76.70;;;;;;5073161;28;20120;-66
2023/03/23 04:35:52;;;;;;;20.08;13.82;;;11.70;77.00;;;;;;5073360;28;20029;-65
2023/03/23 04:38:20;;;;;;;25.48;14.48;;;11.70;77.00;;;;;;5073224;28;20040;-65
2023/03/23 04:40:47;;;;;;;23.63;14.90;;;11.70;77.30;;;;;;5073480;28;20456;-67
2023/03/23 04:43:14;;;;;;;19.25;14.70;;;11.70;77.40;;;;;;5073129;28;20107;-66
2023/03/23 04:45:45;;;;;;;20.23;14.63;;;11.60;77.40;;;;;;5073509;28;20119;-66
2023/03/23 04:48:11;;;;;;;22.20;15.32;;;11.60;78.20;;;;;;5073124;28;20040;-65
2023/03/23 04:50:37;;;;;;;23.02;14.85;;;11.60;77.70;;;;;;5072776;28;20477;-66
2023/03/23 04:53:04;;;;;;;21.70;15.20;;;11.50;77.80;;;;;;5073027;28;20029;-67
2023/03/23 04:55:31;;;;;;;21.67;15.20;;;11.50;77.90;;;;;;5072918;28;20033;-66
2023/03/23 04:58:01;;;;;;;25.65;16.05;;;11.50;78.00;;;;;;5072741;28;20493;-66
2023/03/23 05:00:27;;;;;;;24.42;14.95;;;11.40;77.90;;;;;;5072966;28;20059;-66
2023/03/23 05:02:55;;;;;;;21.45;15.10;;;11.50;78.00;;;;;;5072898;28;20417;-66
2023/03/23 05:05:22;;;;;;;23.05;15.45;;;11.50;78.00;;;;;;5072720;28;20396;-65
2023/03/23 05:07:48;;;;;;;28.23;14.55;;;11.40;77.70;;;;;;5072281;28;20024;-66
2023/03/23 05:10:15;;;;;;;25.85;15.70;;;11.40;77.60;;;;;;5072419;28;20045;-65
2023/03/23 05:12:41;;;;;;;31.38;15.25;;;11.40;77.70;;;;;;5072625;28;20033;-66
2023/03/23 05:15:08;;;;;;;24.33;14.98;;;11.40;77.70;;;;;;5072822;28;20037;-66
2023/03/23 05:17:34;;;;;;;34.10;15.80;;;11.40;77.80;;;;;;5072618;28;20029;-66
2023/03/23 05:20:04;;;;;;;28.17;16.10;;;11.30;77.70;;;;;;5072769;28;20036;-66
2023/03/23 05:22:32;;;;;;;27.10;16.17;;;11.40;77.70;;;;;;5072501;28;20037;-66
2023/03/23 05:25:04;;;;;;;23.05;14.90;;;11.30;77.70;;;;;;5072648;28;20036;-66
2023/03/23 05:27:30;;;;;;;;;;;11.30;77.80;;;;;;5072986;28;20032;-66
2023/03/23 05:29:58;;;;;;;23.17;14.75;;;11.30;78.50;;;;;;5072534;28;19989;-66
2023/03/23 05:32:29;;;;;;;24.70;15.18;;;11.30;78.00;;;;;;5072547;28;20090;-66
2023/03/23 05:34:58;;;;;;;18.90;13.43;;;11.30;78.90;;;;;;5072759;28;20116;-66
2023/03/23 05:37:26;;;;;;;20.08;13.73;;;11.30;78.40;;;;;;5072555;28;20104;-66
2023/03/23 05:39:54;;;;;;;25.33;13.88;;;11.30;78.60;;;;;;5072403;28;20086;-66
2023/03/23 05:42:23;;;;;;;24.45;14.95;;;11.30;78.80;;;;;;5072473;28;20029;-66
2023/03/23 05:44:49;;;;;;;21.55;14.60;;;11.30;78.80;;;;;;5072463;28;20025;-65
2023/03/23 05:47:15;;;;;;;25.95;15.40;;;11.30;79.00;;;;;;5072311;28;20404;-66
2023/03/23 05:49:41;;;;;;;26.88;16.33;;;11.30;79.00;;;;;;5072671;28;20090;-66
2023/03/23 05:52:07;;;;;;;25.80;15.65;;;11.40;79.10;;;;;;5072573;28;20482;-66
2023/03/23 05:54:34;;;;;;;30.48;16.20;;;11.40;79.10;;;;;;5072102;28;20480;-66
2023/03/23 05:56:59;;;;;;;27.08;15.80;;;11.40;79.20;;;;;;5072075;28;20020;-65
2023/03/23 05:59:25;;;;;;;53.38;16.63;;;11.40;79.40;;;;;;5072364;28;20512;-66
2023/03/23 06:01:53;;;;;;;27.60;15.57;;;11.40;79.60;;;;;;5072310;28;20029;-67
2023/03/23 06:04:19;;;;;;;28.00;16.65;;;11.50;79.80;;;;;;5072498;28;20442;-66
2023/03/23 06:06:45;;;;;;;37.17;15.95;;;11.50;79.90;;;;;;5071957;28;20057;-67
2023/03/23 06:09:11;;;;;;;32.03;15.93;;;11.50;80.10;;;;;;5072067;28;20051;-66
2023/03/23 06:11:37;;;;;;;23.15;15.40;;;11.50;80.20;;;;;;5072055;28;20492;-66
2023/03/23 06:14:03;;;;;;;29.85;15.93;;;11.60;80.30;;;;;;5072084;28;20039;-66
2023/03/23 06:16:29;;;;;;;19.17;14.70;;;11.60;80.50;;;;;;5071972;28;20105;-66
2023/03/23 06:18:56;;;;;;;27.77;16.85;;;11.70;80.80;;;;;;5071799;28;20029;-66
2023/03/23 06:21:22;;;;;;;28.17;15.45;;;11.70;81.30;;;;;;5071864;28;20055;-65
2023/03/23 06:23:48;;;;;;;29.05;15.68;;;11.80;81.60;;;;;;5072176;28;20032;-66
2023/03/23 06:26:16;;;;;;;27.85;15.63;;;11.80;81.80;;;;;;5072101;28;20036;-67
2023/03/23 06:28:42;;;;;;;23.63;14.95;;;11.90;82.10;;;;;;5072229;28;20472;-66
2023/03/23 06:31:08;;;;;;;24.95;14.48;;;11.90;82.40;;;;;;5072309;28;20040;-66
2023/03/23 06:33:37;;;;;;;26.25;14.73;;;12.00;82.60;;;;;;5072129;28;20033;-66
2023/03/23 06:36:04;;;;;;;33.97;14.93;;;12.00;82.40;;;;;;5063983;28;20029;-66
2023/03/23 06:38:31;;;;;;;36.00;15.90;;;12.10;82.40;;;;;;5050472;28;20040;-66
2023/03/23 06:40:57;;;;;;;33.33;14.80;;;12.10;82.10;;;;;;5074806;28;20043;-66
2023/03/23 06:43:24;;;;;;;35.40;14.88;;;12.20;82.00;;;;;;5075586;28;20039;-66
2023/03/23 06:45:50;;;;;;;33.42;15.18;;;12.20;82.20;;;;;;5075647;28;20036;-66
2023/03/23 06:48:17;;;;;;;28.00;16.13;;;12.30;82.30;;;;;;5075068;28;20048;-66
2023/03/23 06:50:46;;;;;;;30.40;16.02;;;12.30;82.10;;;;;;5075341;28;20045;-66
2023/03/23 06:53:12;;;;;;;29.73;14.80;;;12.30;82.30;;;;;;5075459;28;20036;-66
2023/03/23 06:55:38;;;;;;;33.25;15.15;;;12.40;82.40;;;;;;5075574;28;20062;-65
2023/03/23 06:58:08;;;;;;;28.80;15.05;;;12.40;81.90;;;;;;5075367;28;20491;-66
2023/03/23 07:00:34;;;;;;;26.52;14.60;;;12.40;81.80;;;;;;5054192;28;20025;-66
2023/03/23 07:03:01;;;;;;;31.40;15.77;;;12.40;81.70;;;;;;5074994;28;20098;-65
2023/03/23 07:05:27;;;;;;;32.95;16.23;;;12.50;82.00;;;;;;5073735;28;20020;-64
2023/03/23 07:07:52;;;;;;;28.73;16.38;;;12.50;82.10;;;;;;5074634;28;20042;-65
2023/03/23 07:10:19;;;;;;;32.28;18.98;;;12.50;82.30;;;;;;5074352;28;20395;-67
2023/03/23 07:12:45;;;;;;;31.27;18.95;;;12.50;82.40;;;;;;5074546;28;20078;-65
2023/03/23 07:15:12;;;;;;;37.10;18.30;;;12.50;82.50;;;;;;5074360;28;20032;-65
2023/03/23 07:17:39;;;;;;;36.30;17.27;;;12.60;82.70;;;;;;5073249;28;20168;-65
2023/03/23 07:20:07;;;;;;;32.08;16.85;;;12.60;82.90;;;;;;5074162;28;20029;-70
2023/03/23 07:22:34;;;;;;;31.33;16.25;;;12.60;82.80;;;;;;5074184;28;20035;-65
2023/03/23 07:25:00;;;;;;;30.65;15.63;;;12.60;82.80;;;;;;5073985;28;20040;-67
2023/03/23 07:27:26;;;;;;;30.73;16.33;;;12.70;82.60;;;;;;5074260;28;20078;-72
2023/03/23 07:29:51;;;;;;;36.97;15.50;;;12.70;82.50;;;;;;5074071;28;20040;-67
2023/03/23 07:32:18;;;;;;;33.80;15.90;;;12.80;82.60;;;;;;5046045;28;20043;-63
2023/03/23 07:34:44;;;;;;;35.60;16.73;;;12.80;82.80;;;;;;5092230;28;20028;-65
2023/03/23 07:37:10;;;;;;;34.35;16.95;;;12.80;83.00;;;;;;5094513;28;20039;-65
2023/03/23 07:39:36;;;;;;;25.05;17.45;;;12.90;83.20;;;;;;5094492;28;20032;-65
2023/03/23 07:42:02;;;;;;;22.45;15.93;;;13.00;83.20;;;;;;5094481;28;20522;-65
2023/03/23 07:44:28;;;;;;;21.08;15.20;;;13.00;83.20;;;;;;5094470;28;20060;-65
2023/03/23 07:46:54;;;;;;;28.50;16.67;;;13.10;83.10;;;;;;5094408;28;20048;-65
2023/03/23 07:49:20;;;;;;;23.63;15.02;;;13.10;83.10;;;;;;5094539;28;20478;-65
2023/03/23 07:51:46;;;;;;;23.88;15.82;;;13.20;83.00;;;;;;5094056;28;20492;-66
2023/03/23 07:54:12;;;;;;;19.10;14.95;;;13.30;83.00;;;;;;5094743;28;20063;-65
2023/03/23 07:56:41;;;;;;;28.88;15.52;;;13.30;83.20;;;;;;5094236;28;20364;-65
2023/03/23 07:59:07;;;;;;;30.00;16.45;;;13.40;83.30;;;;;;5094388;28;20036;-65
2023/03/23 08:01:34;;;;;;;31.08;14.98;;;13.40;83.20;;;;;;5094009;28;20049;-65
2023/03/23 08:03:59;;;;;;;24.75;15.40;;;13.60;83.20;;;;;;5093879;28;20479;-65
2023/03/23 08:06:26;;;;;;;34.45;16.08;;;13.60;83.40;;;;;;5094006;28;20032;-64
2023/03/23 08:08:52;;;;;;;21.67;14.80;;;13.70;83.60;;;;;;5093520;28;20031;-65
2023/03/23 08:11:19;;;;;;;22.63;15.30;;;13.80;84.10;;;;;;5075184;28;20392;-66
2023/03/23 08:13:46;;;;;;;20.35;13.20;;;13.90;83.10;;;;;;5092957;28;20118;-66
2023/03/23 08:16:13;;;;;;;19.15;13.48;;;13.90;82.60;;;;;;5094056;28;20157;-65
2023/03/23 08:18:39;;;;;;;15.98;12.88;;;14.00;81.70;;;;;;5093862;28;20027;-66
2023/03/23 08:21:08;;;;;;;18.83;13.18;;;14.10;81.50;;;;;;5094050;28;20036;-65
2023/03/23 08:23:36;;;;;;;18.63;13.00;;;14.10;81.20;;;;;;5075885;28;20044;-64
2023/03/23 08:26:03;;;;;;;18.15;12.02;;;14.20;80.60;;;;;;5092775;28;20061;-65
2023/03/23 08:28:28;;;;;;;17.83;12.27;;;14.30;80.10;;;;;;5092462;28;20047;-65
2023/03/23 08:30:54;;;;;;;26.77;12.48;;;14.30;79.50;;;;;;5092325;28;20074;-65
2023/03/23 08:33:21;;;;;;;18.75;11.68;;;14.40;79.50;;;;;;5092410;28;20109;-65
2023/03/23 08:35:55;;;;;;;20.20;12.25;;;14.40;79.10;;;;;;5074231;28;20044;-66
2023/03/23 08:38:21;;;;;;;19.30;11.35;;;14.50;79.10;;;;;;5092323;28;20064;-71
2023/03/23 08:40:47;;;;;;;17.90;11.43;;;14.50;78.70;;;;;;5093386;28;20079;-64
2023/03/23 08:43:13;;;;;;;25.10;12.57;;;14.60;78.70;;;;;;5093448;28;20120;-63
2023/03/23 08:45:39;;;;;;;21.98;11.68;;;14.60;78.40;;;;;;5093553;28;20119;-64
2023/03/23 08:48:07;;;;;;;22.27;12.07;;;14.60;78.30;;;;;;5093317;28;20134;-64
2023/03/23 08:50:33;;;;;;;18.80;11.90;;;14.70;78.40;;;;;;5093161;28;20392;-64
2023/03/23 08:52:59;;;;;;;16.90;11.60;;;14.80;78.50;;;;;;5093255;28;20039;-64
2023/03/23 08:55:26;;;;;;;16.83;10.63;;;14.80;78.20;;;;;;5093213;28;20036;-64
2023/03/23 08:57:52;;;;;;;19.30;10.57;;;14.90;77.80;;;;;;5093212;28;20487;-64
2023/03/23 09:00:20;;;;;;;22.00;11.43;;;14.90;77.60;;;;;;5093248;28;20083;-63
2023/03/23 09:02:49;;;;;;;15.65;11.50;;;15.00;77.40;;;;;;5092813;28;20508;-64
2023/03/23 09:05:16;;;;;;;21.33;10.63;;;15.10;76.90;;;;;;5093163;28;20047;-64
2023/03/23 09:07:47;;;;;;;16.58;10.23;;;15.10;76.70;;;;;;5093113;28;20155;-68
2023/03/23 09:10:14;;;;;;;17.05;11.32;;;15.10;76.20;;;;;;5093138;28;20040;-64
2023/03/23 09:12:41;;;;;;;23.23;11.38;;;15.20;75.90;;;;;;5093271;28;20523;-64
2023/03/23 09:15:09;;;;;;;20.38;10.57;;;15.20;75.60;;;;;;5093135;28;20039;-64
2023/03/23 09:17:42;;;;;;;19.70;11.07;;;15.30;75.00;;;;;;5092727;28;20032;-64
2023/03/23 09:20:11;;;;;;;15.13;10.52;;;15.30;74.70;;;;;;5092892;28;20385;-65
2023/03/23 09:22:39;;;;;;;16.95;11.20;;;15.40;75.00;;;;;;5093034;28;20388;-64
2023/03/23 09:25:06;;;;;;;16.88;10.57;;;15.50;75.40;;;;;;5092808;28;20028;-65
2023/03/23 09:27:33;;;;;;;17.05;10.43;;;15.60;74.70;;;;;;5092744;28;20028;-63
2023/03/23 09:30:00;;;;;;;16.77;10.18;;;15.60;74.60;;;;;;5093194;28;20420;-64
2023/03/23 09:32:26;;;;;;;14.23;9.25;;;15.70;74.30;;;;;;5092655;28;20039;-63
2023/03/23 09:34:54;;;;;;;15.32;9.65;;;15.70;73.70;;;;;;5092794;28;20024;-63
2023/03/23 09:37:20;;;;;;;14.82;8.88;;;15.80;73.50;;;;;;5092578;28;20032;-64
2023/03/23 09:39:46;;;;;;;14.30;8.68;;;15.90;73.60;;;;;;5091767;28;20032;-63
2023/03/23 09:42:30;;;;;;;12.90;8.40;;;15.90;72.50;;;;;;5091263;28;20035;-63
2023/03/23 09:45:12;;;;;;;13.88;7.35;;;15.90;72.40;;;;;;5092172;28;20039;-64
2023/03/23 09:47:41;;;;;;;12.88;6.82;;;16.00;72.90;;;;;;5092878;28;20395;-63
2023/03/23 09:50:16;;;;;;;11.45;7.78;;;16.20;72.60;;;;;;5092828;28;20072;-64
2023/03/23 09:52:51;;;;;;;12.52;6.07;;;16.30;72.50;;;;;;5092331;28;20028;-63
2023/03/23 09:55:19;;;;;;;11.73;6.68;;;16.40;70.60;;;;;;5092589;28;20127;-64
2023/03/23 09:58:10;;;;;;;13.38;5.80;;;16.50;69.60;;;;;;5092787;28;20032;-63
2023/03/23 10:00:57;;;;;;;11.43;5.57;;;16.60;68.90;;;;;;5092345;28;20043;-64
2023/03/23 10:03:30;;;;;;;9.05;5.55;;;16.70;68.10;;;;;;5092256;28;20124;-63
2023/03/23 10:05:56;;;;;;;13.20;6.20;;;16.70;67.10;;;;;;5092608;28;20036;-64
2023/03/23 10:08:26;;;;;;;11.05;6.72;;;16.80;67.60;;;;;;5092705;28;20423;-62
2023/03/23 10:11:04;;;;;;;14.18;7.40;;;16.80;68.00;;;;;;5092505;28;20040;-64
2023/03/23 10:14:09;;;;;;;14.43;6.97;;;16.90;68.10;;;;;;5092163;28;20077;-63
2023/03/23 10:16:48;;;;;;;13.40;6.93;;;16.90;68.10;;;;;;5081628;28;20402;-64
2023/03/23 10:19:41;;;;;;;11.07;6.43;;;17.00;68.00;;;;;;5096066;28;20036;-65
2023/03/23 10:22:13;;;;;;;12.20;5.53;;;17.20;68.60;;;;;;5096182;28;20050;-64
2023/03/23 10:24:57;;;;;;;11.68;5.82;;;17.30;68.50;;;;;;5096246;28;20369;-65
2023/03/23 10:27:38;;;;;;;10.15;6.15;;;17.40;67.50;;;;;;5096183;28;20417;-63
2023/03/23 10:30:21;;;;;;;7.72;5.05;;;17.50;66.50;;;;;;5095932;28;20074;-64
2023/03/23 10:32:53;;;;;;;13.07;4.93;;;17.50;66.30;;;;;;5095962;28;20039;-64
2023/03/23 10:35:42;;;;;;;8.82;4.47;;;17.60;65.60;;;;;;5095884;28;20032;-64
2023/03/23 10:38:36;;;;;;;9.75;4.28;;;17.70;65.40;;;;;;5096252;28;20036;-64
2023/03/23 10:41:11;;;;;;;7.00;4.25;;;17.80;65.30;;;;;;5092992;28;20110;-64
2023/03/23 10:43:39;;;;;;;8.50;3.70;;;;;;;;;;5095752;28;20040;-66
2023/03/23 10:47:10;;;;;;;9.82;3.85;;;18.10;82.70;;;;;;5095629;28;20028;-64
2023/03/23 10:49:43;;;;;;;8.02;3.75;;;18.10;79.10;;;;;;4993668;28;20097;-65
2023/03/23 10:52:35;;;;;;;8.70;3.35;;;18.00;64.50;;;;;;4993973;28;20031;-65
2023/03/23 10:55:17;;;;;;;6.53;2.90;;;18.00;64.30;;;;;;5064818;28;20040;-65
2023/03/23 10:57:45;;;;;;;6.18;2.75;;;17.90;62.70;;;;;;5095444;28;20529;-64
2023/03/23 11:00:15;;;;;;;8.60;3.30;;;17.90;62.10;;;;;;5095384;28;20479;-64
2023/03/23 11:02:45;;;;;;;5.07;3.00;;;17.80;62.00;;;;;;5095452;28;20075;-64
2023/03/23 11:05:24;;;;;;;5.05;2.95;;;17.80;61.40;;;;;;5095555;28;20032;-64
2023/03/23 11:07:57;;;;;;;6.68;3.17;;;17.70;61.40;;;;;;5094926;28;20040;-63
2023/03/23 11:10:37;;;;;;;4.95;2.80;;;17.80;61.30;;;;;;5095082;28;20499;-65
2023/03/23 11:13:04;;;;;;;5.95;2.67;;;17.80;61.20;;;;;;5095241;28;20071;-64
2023/03/23 11:15:39;;;;;;;7.00;3.42;;;17.80;61.40;;;;;;5095225;28;20036;-64
2023/03/23 11:18:12;;;;;;;7.35;3.45;;;17.80;62.10;;;;;;5095314;28;20058;-64
2023/03/23 11:20:43;;;;;;;8.60;3.67;;;17.90;62.40;;;;;;5095205;28;20043;-64
2023/03/23 11:23:25;;;;;;;8.55;3.88;;;18.00;61.30;;;;;;5094817;28;20024;-66
2023/03/23 11:26:16;;;;;;;6.50;3.73;;;18.00;61.10;;;;;;5093821;28;20032;-65
2023/03/23 11:28:55;;;;;;;10.10;3.40;;;18.10;60.40;;;;;;5093928;28;20036;-64
2023/03/23 11:31:23;;;;;;;4.47;2.83;;;18.10;60.40;;;;;;5095207;28;20040;-65
2023/03/23 11:33:57;;;;;;;7.40;3.08;;;18.20;61.10;;;;;;5076965;28;20396;-63
2023/03/23 11:36:36;;;;;;;10.23;3.42;;;18.30;61.40;;;;;;5094943;28;20036;-64
2023/03/23 11:39:18;;;;;;;5.78;3.20;;;18.40;60.20;;;;;;5094929;28;20407;-65
2023/03/23 11:41:43;;;;;;;7.38;3.30;;;18.60;59.30;;;;;;5094872;28;20108;-63
2023/03/23 11:44:11;;;;;;;7.57;3.05;;;18.70;67.80;;;;;;5094211;28;20119;-63
2023/03/23 11:46:57;;;;;;;4.60;3.15;;;18.80;63.00;;;;;;5093867;28;20055;-63
2023/03/23 11:49:28;;;;;;;5.47;2.80;;;18.80;62.60;;;;;;5093523;28;20044;-64
2023/03/23 11:52:29;;;;;;;6.25;3.03;;;18.60;57.70;;;;;;5094523;28;20031;-64
2023/03/23 11:55:13;;;;;;;5.30;2.92;;;18.60;58.10;;;;;;5049631;28;20145;-64
2023/03/23 11:57:39;;;;;;;7.63;2.97;;;18.70;58.00;;;;;;5094231;28;20032;-63
2023/03/23 12:00:18;;;;;;;6.82;3.05;;;18.60;57.60;;;;;;5094481;28;20042;-65
2023/03/23 12:03:06;;;;;;;5.30;2.90;;;18.70;58.00;;;;;;5094627;28;20028;-64
2023/03/23 12:05:50;;;;;;;7.53;3.03;;;18.70;58.20;;;;;;5094542;28;20086;-64
2023/03/23 12:08:33;;;;;;;7.28;2.92;;;18.80;58.90;;;;;;5094186;28;20024;-64
2023/03/23 12:11:23;;;;;;;4.75;2.80;;;18.90;58.50;;;;;;5094251;28;20075;-64
2023/03/23 12:14:15;;;;;;;5.85;2.60;;;19.10;57.10;;;;;;5094419;28;20404;-64
2023/03/23 12:17:02;;;;;;;4.95;2.20;;;19.20;55.90;;;;;;5094085;28;20400;-64
2023/03/23 12:20:10;;;;;;;4.38;2.70;;;19.30;55.70;;;;;;5094096;28;20043;-64
2023/03/23 12:23:14;;;;;;;4.38;2.55;;;19.40;56.00;;;;;;5093925;28;20119;-64
2023/03/23 12:26:06;;;;;;;4.85;2.40;;;19.60;56.40;;;;;;5093176;28;20060;-64
2023/03/23 12:28:53;;;;;;;7.57;2.78;;;19.80;70.40;;;;;;5084831;28;20036;-64
2023/03/23 12:31:28;;;;;;;4.25;2.47;;;19.90;57.40;;;;;;5093851;28;20480;-64
2023/03/23 12:33:59;;;;;;;5.15;2.33;;;19.80;54.70;;;;;;5093928;28;20060;-65
2023/03/23 12:36:34;;;;;;;4.15;2.17;;;19.90;53.70;;;;;;5093289;28;20044;-65
2023/03/23 12:39:30;;;;;;;4.30;2.35;;;19.90;51.90;;;;;;5093906;28;20040;-64
2023/03/23 12:42:33;;;;;;;5.80;2.97;;;19.90;52.10;;;;;;5093658;28;20033;-63
2023/03/23 12:45:12;;;;;;;4.25;2.40;;;19.90;52.00;;;;;;5093691;28;20040;-64
2023/03/23 12:47:44;;;;;;;4.13;2.50;;;19.80;53.60;;;;;;5093494;28;20071;-64
2023/03/23 12:50:33;;;;;;;5.43;3.10;;;19.80;53.60;;;;;;5075759;28;20549;-63
2023/03/23 12:53:04;;;;;;;7.63;2.83;;;19.90;54.30;;;;;;5093650;28;20085;-64